createdAt,value
2022-09-24T00:01:25.792Z,100709.00
2022-09-24T00:04:00.178Z,100718.72
2022-09-24T00:06:29.246Z,100721.38
2022-09-24T00:08:57.597Z,100723.16
2022-09-24T00:11:26.636Z,100722.44
2022-09-24T00:13:54.356Z,100723.34
2022-09-24T00:16:25.971Z,100719.97
2022-09-24T00:18:53.895Z,100718.28
2022-09-24T00:21:27.366Z,100720.09
2022-09-24T00:23:56.812Z,100720.38
2022-09-24T00:26:42.941Z,100721.72
2022-09-24T00:29:12.493Z,100708.72
2022-09-24T00:31:40.214Z,100709.97
2022-09-24T00:34:07.918Z,100707.44
2022-09-24T00:36:35.018Z,100706.47
2022-09-24T00:39:02.194Z,100703.84
2022-09-24T00:41:31.637Z,100701.69
2022-09-24T00:43:59.138Z,100693.81
2022-09-24T00:46:34.073Z,100696.56
2022-09-24T00:49:04.539Z,100694.66
2022-09-24T00:51:32.864Z,100692.97
2022-09-24T00:54:04.117Z,100684.09
2022-09-24T00:56:34.116Z,100689.38
2022-09-24T00:59:04.583Z,100689.66
2022-09-24T01:01:31.713Z,100693.44
2022-09-24T01:03:59.646Z,100689.88
2022-09-24T01:06:27.303Z,100689.97
2022-09-24T01:08:55.544Z,100685.75
2022-09-24T01:11:26.842Z,100683.94
2022-09-24T01:14:15.680Z,100677.91
2022-09-24T01:17:34.026Z,100687.06
2022-09-24T01:20:23.203Z,100674.03
2022-09-24T01:22:53.157Z,100672.34
2022-09-24T01:25:25.313Z,100674.03
2022-09-24T01:28:08.092Z,100665.19
2022-09-24T01:30:38.206Z,100664.44
2022-09-24T01:33:08.685Z,100660.84
2022-09-24T01:35:45.302Z,100662.63
2022-09-24T01:38:18.399Z,100666.41
2022-09-24T01:40:46.574Z,100664.63
2022-09-24T01:43:14.883Z,100662.84
2022-09-24T01:45:42.427Z,100660.94
2022-09-24T01:48:09.872Z,100649.66
2022-09-24T01:50:50.752Z,100640.97
2022-09-24T01:53:20.822Z,100641.81
2022-09-24T01:55:51.115Z,100639.94
2022-09-24T01:58:23.008Z,100639.94
2022-09-24T02:00:53.350Z,100648.72
2022-09-24T02:03:29.903Z,100634.41
2022-09-24T02:06:09.769Z,100639.59
2022-09-24T02:08:41.963Z,100634.22
2022-09-24T02:11:14.878Z,100633.06
2022-09-24T02:14:02.118Z,100632.34
2022-09-24T02:16:39.293Z,100634.22
2022-09-24T02:19:09.407Z,100629.34
2022-09-24T02:21:37.505Z,100631.84
2022-09-24T02:24:17.000Z,100636.00
2022-09-24T02:26:44.288Z,100633.47
2022-09-24T02:29:11.979Z,100624.59
2022-09-24T02:31:41.382Z,100632.34
2022-09-24T02:34:20.900Z,100626.28
2022-09-24T02:36:53.521Z,100623.66
2022-09-24T02:39:20.686Z,100622.91
2022-09-24T02:41:49.332Z,100622.91
2022-09-24T02:44:16.886Z,100628.56
2022-09-24T02:46:45.224Z,100619.81
2022-09-24T02:49:14.125Z,100621.81
2022-09-24T02:51:42.225Z,100618.97
2022-09-24T02:54:10.113Z,100622.25
2022-09-24T02:56:37.293Z,100615.09
2022-09-24T02:59:04.658Z,100614.06
2022-09-24T03:01:32.423Z,100611.31
2022-09-24T03:03:59.733Z,100609.53
2022-09-24T03:06:26.898Z,100606.81
2022-09-24T03:08:54.050Z,100606.88
2022-09-24T03:11:21.680Z,100609.75
2022-09-24T03:13:49.428Z,100615.59
2022-09-24T03:16:17.722Z,100605.88
2022-09-24T03:18:46.384Z,100612.28
2022-09-24T03:21:15.363Z,100617.09
2022-09-24T03:23:42.493Z,100605.63
2022-09-24T03:26:10.083Z,100601.09
2022-09-24T03:28:37.324Z,100607.97
2022-09-24T03:31:04.840Z,100619.53
2022-09-24T03:33:32.001Z,100609.47
2022-09-24T03:36:03.510Z,100605.38
2022-09-24T03:38:30.987Z,100613.00
2022-09-24T03:40:58.577Z,100611.25
2022-09-24T03:43:26.162Z,100606.75
2022-09-24T03:45:53.403Z,100604.78
2022-09-24T03:48:21.721Z,100607.22
2022-09-24T03:50:49.277Z,100603.06
2022-09-24T03:53:16.783Z,100600.34
2022-09-24T03:55:46.751Z,100596.00
2022-09-24T03:58:15.630Z,100600.25
2022-09-24T04:00:42.775Z,100598.47
2022-09-24T04:03:10.200Z,100586.97
2022-09-24T04:05:37.701Z,100587.84
2022-09-24T04:08:07.830Z,100590.38
2022-09-24T04:10:34.957Z,100586.22
2022-09-24T04:13:02.778Z,100586.22
2022-09-24T04:15:30.061Z,100578.50
2022-09-24T04:17:58.654Z,100579.84
2022-09-24T04:20:27.527Z,100573.91
2022-09-24T04:22:56.205Z,100576.56
2022-09-24T04:25:24.448Z,100581.44
2022-09-24T04:27:56.131Z,100577.59
2022-09-24T04:30:24.615Z,100584.34
2022-09-24T04:32:52.032Z,100575.59
2022-09-24T04:35:20.193Z,100574.31
2022-09-24T04:37:47.926Z,100571.38
2022-09-24T04:40:16.294Z,100577.03
2022-09-24T04:42:46.274Z,100573.94
2022-09-24T04:45:15.130Z,100571.19
2022-09-24T04:47:42.284Z,100578.63
2022-09-24T04:50:11.377Z,100575.06
2022-09-24T04:52:39.238Z,100577.88
2022-09-24T04:55:06.935Z,100584.84
2022-09-24T04:57:35.896Z,100579.38
2022-09-24T05:00:07.427Z,100580.31
2022-09-24T05:02:34.636Z,100584.84
2022-09-24T05:05:01.845Z,100586.44
2022-09-24T05:07:29.018Z,100592.38
2022-09-24T05:09:56.747Z,100585.97
2022-09-24T05:12:23.839Z,100589.63
2022-09-24T05:14:50.899Z,100588.69
2022-09-24T05:17:18.920Z,100584.66
2022-09-24T05:19:46.067Z,100584.09
2022-09-24T05:22:13.474Z,100581.28
2022-09-24T05:24:40.588Z,100583.69
2022-09-24T05:27:09.726Z,100590.56
2022-09-24T05:29:41.113Z,100596.59
2022-09-24T05:32:10.426Z,100583.34
2022-09-24T05:34:37.525Z,100585.84
2022-09-24T05:37:04.601Z,100580.78
2022-09-24T05:39:34.252Z,100585.31
2022-09-24T05:42:04.243Z,100582.66
2022-09-24T05:44:31.866Z,100586.03
2022-09-24T05:46:59.563Z,100582.38
2022-09-24T05:49:26.781Z,100588.38
2022-09-24T05:51:53.966Z,100583.34
2022-09-24T05:54:21.381Z,100588.69
2022-09-24T05:56:48.459Z,100587.09
2022-09-24T05:59:15.612Z,100586.91
2022-09-24T06:01:42.799Z,100588.38
2022-09-24T06:04:12.026Z,100589.88
2022-09-24T06:06:39.092Z,100594.13
2022-09-24T06:09:08.899Z,100595.81
2022-09-24T06:11:40.103Z,100600.81
2022-09-24T06:14:09.019Z,100602.50
2022-09-24T06:16:36.750Z,100601.47
2022-09-24T06:19:03.926Z,100595.91
2022-09-24T06:21:31.015Z,100602.19
2022-09-24T06:23:58.090Z,100604.00
2022-09-24T06:26:26.284Z,100601.06
2022-09-24T06:28:53.438Z,100606.88
2022-09-24T06:31:20.734Z,100605.97
2022-09-24T06:33:48.020Z,100600.47
2022-09-24T06:36:15.217Z,100597.94
2022-09-24T06:38:42.398Z,100602.25
2022-09-24T06:41:10.053Z,100601.41
2022-09-24T06:43:37.421Z,100591.94
2022-09-24T06:46:04.977Z,100599.56
2022-09-24T06:48:32.331Z,100598.22
2022-09-24T06:50:59.467Z,100600.47
2022-09-24T06:53:26.724Z,100600.38
2022-09-24T06:55:57.130Z,100602.41
2022-09-24T06:58:24.503Z,100596.94
2022-09-24T07:00:54.288Z,100601.16
2022-09-24T07:03:22.367Z,100593.06
2022-09-24T07:05:49.490Z,100597.38
2022-09-24T07:08:17.149Z,100609.31
2022-09-24T07:10:52.895Z,100617.03
2022-09-24T07:13:21.309Z,100621.59
2022-09-24T07:15:50.025Z,100613.03
2022-09-24T07:18:17.846Z,100616.63
2022-09-24T07:20:45.393Z,100620.41
2022-09-24T07:23:12.953Z,100622.19
2022-09-24T07:25:40.108Z,100619.63
2022-09-24T07:28:09.516Z,100623.03
2022-09-24T07:30:37.841Z,100628.84
2022-09-24T07:33:05.396Z,100629.59
2022-09-24T07:35:32.500Z,100624.31
2022-09-24T07:38:05.768Z,100623.16
2022-09-24T07:40:36.896Z,100626.88
2022-09-24T07:43:04.093Z,100625.69
2022-09-24T07:45:31.494Z,100622.75
2022-09-24T07:48:03.460Z,100620.03
2022-09-24T07:50:35.307Z,100626.16
2022-09-24T07:53:02.375Z,100623.50
2022-09-24T07:55:29.464Z,100625.00
2022-09-24T07:57:57.375Z,100621.09
2022-09-24T08:00:24.880Z,100631.53
2022-09-24T08:02:53.766Z,100629.78
2022-09-24T08:05:20.944Z,100623.75
2022-09-24T08:07:55.264Z,100628.28
2022-09-24T08:10:23.680Z,100625.44
2022-09-24T08:12:51.105Z,100630.22
2022-09-24T08:15:18.560Z,100628.09
2022-09-24T08:17:45.725Z,100627.91
2022-09-24T08:20:13.006Z,100626.84
2022-09-24T08:22:40.147Z,100627.28
2022-09-24T08:25:07.796Z,100622.53
2022-09-24T08:27:37.027Z,100627.81
2022-09-24T08:30:05.158Z,100633.00
2022-09-24T08:32:32.254Z,100631.94
2022-09-24T08:34:59.490Z,100634.91
2022-09-24T08:37:28.309Z,100633.97
2022-09-24T08:39:55.790Z,100631.00
2022-09-24T08:42:32.669Z,100634.06
2022-09-24T08:45:19.345Z,100632.28
2022-09-24T08:47:50.935Z,100638.31
2022-09-24T08:50:21.560Z,100634.38
2022-09-24T08:53:06.511Z,100638.44
2022-09-24T08:55:38.445Z,100641.06
2022-09-24T08:58:27.729Z,100643.41
2022-09-24T09:01:10.090Z,100631.75
2022-09-24T09:03:45.540Z,100643.59
2022-09-24T09:06:18.435Z,100638.75
2022-09-24T09:09:12.113Z,100639.19
2022-09-24T09:11:41.116Z,100639.38
2022-09-24T09:14:29.157Z,100638.59
2022-09-24T09:17:24.935Z,100637.94
2022-09-24T09:19:57.553Z,100641.00
2022-09-24T09:22:36.124Z,100638.13
2022-09-24T09:25:16.605Z,100643.31
2022-09-24T09:27:44.023Z,100633.63
2022-09-24T09:30:14.453Z,100640.91
2022-09-24T09:32:58.637Z,100641.16
2022-09-24T09:35:47.510Z,100629.28
2022-09-24T09:38:31.257Z,100635.91
2022-09-24T09:41:35.029Z,100633.56
2022-09-24T09:44:12.203Z,100635.75
2022-09-24T09:46:47.669Z,100633.59
2022-09-24T09:49:15.483Z,100626.19
2022-09-24T09:51:43.050Z,100630.16
2022-09-24T09:54:11.565Z,100634.78
2022-09-24T09:56:44.450Z,100634.44
2022-09-24T09:59:11.452Z,100630.50
2022-09-24T10:01:43.359Z,100628.47
2022-09-24T10:04:40.864Z,100631.84
2022-09-24T10:07:16.431Z,100625.00
2022-09-24T10:09:45.111Z,100629.84
2022-09-24T10:12:22.088Z,100622.25
2022-09-24T10:15:03.784Z,100626.38
2022-09-24T10:17:38.969Z,100621.78
2022-09-24T10:20:31.196Z,100622.03
2022-09-24T10:23:01.624Z,100621.94
2022-09-24T10:25:29.842Z,100612.53
2022-09-24T10:28:19.297Z,100616.88
2022-09-24T10:30:51.772Z,100618.94
2022-09-24T10:33:19.040Z,100620.16
2022-09-24T10:35:46.247Z,100618.47
2022-09-24T10:38:19.797Z,100624.59
2022-09-24T10:40:47.763Z,100619.03
2022-09-24T10:43:20.756Z,100614.13
2022-09-24T10:46:17.990Z,100619.91
2022-09-24T10:49:04.434Z,100616.66
2022-09-24T10:51:59.814Z,100619.41
2022-09-24T10:55:06.270Z,100617.13
2022-09-24T10:57:55.763Z,100619.66
2022-09-24T11:00:25.017Z,100621.09
2022-09-24T11:03:24.487Z,100624.34
2022-09-24T11:06:06.187Z,100617.22
2022-09-24T11:09:21.569Z,100618.69
2022-09-24T11:12:27.836Z,100629.06
2022-09-24T11:15:19.345Z,100619.53
2022-09-24T11:17:57.875Z,100628.31
2022-09-24T11:20:39.478Z,100622.31
2022-09-24T11:23:33.386Z,100631.47
2022-09-24T11:26:15.364Z,100633.38
2022-09-24T11:28:57.817Z,100619.59
2022-09-24T11:31:40.391Z,100619.09
2022-09-24T11:34:49.233Z,100609.44
2022-09-24T11:37:39.249Z,100616.72
2022-09-24T11:40:23.373Z,100605.19
2022-09-24T11:43:28.088Z,100606.63
2022-09-24T11:46:14.038Z,100603.94
2022-09-24T11:49:13.183Z,100600.91
2022-09-24T11:52:08.060Z,100607.75
2022-09-24T11:54:43.774Z,100606.69
2022-09-24T11:57:18.412Z,100613.44
2022-09-24T12:00:08.440Z,100611.22
2022-09-24T12:02:42.233Z,100605.38
2022-09-24T12:05:14.128Z,100614.19
2022-09-24T12:08:03.209Z,100610.09
2022-09-24T12:10:46.843Z,100612.91
2022-09-24T12:13:15.991Z,100619.91
2022-09-24T12:15:52.785Z,100618.44
2022-09-24T12:18:31.463Z,100615.31
2022-09-24T12:21:09.191Z,100618.75
2022-09-24T12:23:44.817Z,100612.00
2022-09-24T12:26:16.308Z,100614.91
2022-09-24T12:29:35.590Z,100613.81
2022-09-24T12:32:31.450Z,100612.25
2022-09-24T12:35:18.888Z,100600.69
2022-09-24T12:37:47.609Z,100605.72
2022-09-24T12:40:52.308Z,100604.66
2022-09-24T12:43:46.095Z,100607.53
2022-09-24T12:46:40.497Z,100605.91
2022-09-24T12:49:27.706Z,100596.72
2022-09-24T12:52:00.768Z,100601.75
2022-09-24T12:54:30.332Z,100604.84
2022-09-24T12:57:25.286Z,100606.03
2022-09-24T13:00:00.472Z,100601.03
2022-09-24T13:02:29.939Z,100605.41
2022-09-24T13:05:05.536Z,100603.94
2022-09-24T13:07:36.128Z,100611.13
2022-09-24T13:10:15.334Z,100604.25
2022-09-24T13:12:43.399Z,100602.84
2022-09-24T13:15:32.573Z,100603.13
2022-09-24T13:18:04.330Z,100604.06
2022-09-24T13:20:32.698Z,100594.97
2022-09-24T13:23:14.787Z,100591.06
2022-09-24T13:25:42.139Z,100595.84
2022-09-24T13:28:37.655Z,100593.38
2022-09-24T13:31:23.852Z,100592.16
2022-09-24T13:33:54.987Z,100595.72
2022-09-24T13:36:45.090Z,100594.44
2022-09-24T13:39:28.069Z,100590.41
2022-09-24T13:42:07.588Z,100594.75
2022-09-24T13:44:37.487Z,100593.91
2022-09-24T13:47:17.182Z,100589.44
2022-09-24T13:49:47.009Z,100595.84
2022-09-24T13:52:33.188Z,100590.00
2022-09-24T13:55:05.980Z,100593.16
2022-09-24T13:57:45.752Z,100588.00
2022-09-24T14:00:16.568Z,100582.25
2022-09-24T14:02:56.054Z,100589.09
2022-09-24T14:05:23.382Z,100584.19
2022-09-24T14:08:18.401Z,100584.31
2022-09-24T14:10:51.036Z,100586.84
2022-09-24T14:13:21.703Z,100588.25
2022-09-24T14:16:10.033Z,100581.69
2022-09-24T14:18:37.345Z,100586.31
2022-09-24T14:21:26.155Z,100580.41
2022-09-24T14:24:02.517Z,100577.31
2022-09-24T14:26:40.972Z,100580.09
2022-09-24T14:29:13.052Z,100577.31
2022-09-24T14:31:51.146Z,100582.63
2022-09-24T14:34:34.270Z,100582.75
2022-09-24T14:37:17.369Z,100577.31
2022-09-24T14:39:46.653Z,100584.56
2022-09-24T14:42:21.218Z,100582.31
2022-09-24T14:44:51.657Z,100570.84
2022-09-24T14:47:30.404Z,100575.06
2022-09-24T14:49:57.653Z,100582.75
2022-09-24T14:52:32.168Z,100579.06
2022-09-24T14:55:15.306Z,100583.97
2022-09-24T14:57:47.574Z,100583.41
2022-09-24T15:00:23.630Z,100584.75
2022-09-24T15:03:13.265Z,100583.09
2022-09-24T15:05:40.386Z,100580.69
2022-09-24T15:08:22.493Z,100579.41
2022-09-24T15:11:05.859Z,100577.88
2022-09-24T15:13:37.590Z,100579.34
2022-09-24T15:16:28.778Z,100580.59
2022-09-24T15:19:13.848Z,100580.25
2022-09-24T15:21:41.110Z,100583.16
2022-09-24T15:24:08.184Z,100580.06
2022-09-24T15:26:36.286Z,100586.91
2022-09-24T15:29:03.843Z,100587.03
2022-09-24T15:31:31.518Z,100582.13
2022-09-24T15:33:58.919Z,100585.88
2022-09-24T15:36:26.064Z,100585.03
2022-09-24T15:38:58.513Z,100571.03
2022-09-24T15:41:25.603Z,100573.84
2022-09-24T15:43:56.790Z,100562.09
2022-09-24T15:46:24.304Z,100569.09
2022-09-24T15:48:51.509Z,100562.69
2022-09-24T15:51:23.138Z,100569.63
2022-09-24T15:53:50.711Z,100561.19
2022-09-24T15:56:17.849Z,100571.94
2022-09-24T15:58:45.217Z,100570.84
2022-09-24T16:01:18.800Z,100570.59
2022-09-24T16:03:46.074Z,100572.66
2022-09-24T16:06:14.045Z,100572.06
2022-09-24T16:08:42.325Z,100571.09
2022-09-24T16:11:09.660Z,100575.97
2022-09-24T16:13:36.850Z,100579.59
2022-09-24T16:16:06.419Z,100583.81
2022-09-24T16:18:33.777Z,100582.25
2022-09-24T16:21:05.238Z,100584.91
2022-09-24T16:23:32.322Z,100575.88
2022-09-24T16:26:00.207Z,100582.31
2022-09-24T16:28:27.796Z,100575.28
2022-09-24T16:30:55.472Z,100572.19
2022-09-24T16:33:22.919Z,100586.97
2022-09-24T16:35:50.029Z,100588.03
2022-09-24T16:38:22.563Z,100589.13
2022-09-24T16:40:52.022Z,100588.41
2022-09-24T16:43:19.304Z,100588.56
2022-09-24T16:45:46.451Z,100589.88
2022-09-24T16:48:13.854Z,100600.19
2022-09-24T16:50:40.971Z,100594.28
2022-09-24T16:53:08.062Z,100601.06
2022-09-24T16:55:35.216Z,100593.56
2022-09-24T16:58:02.275Z,100597.34
2022-09-24T17:00:29.394Z,100593.47
2022-09-24T17:02:56.541Z,100597.81
2022-09-24T17:05:23.763Z,100596.97
2022-09-24T17:07:50.865Z,100597.44
2022-09-24T17:10:18.166Z,100603.59
2022-09-24T17:12:49.875Z,100607.47
2022-09-24T17:15:22.227Z,100607.59
2022-09-24T17:17:50.754Z,100612.53
2022-09-24T17:20:18.813Z,100613.72
2022-09-24T17:22:48.075Z,100614.84
2022-09-24T17:25:15.391Z,100607.81
2022-09-24T17:27:42.512Z,100612.41
2022-09-24T17:30:10.874Z,100605.06
2022-09-24T17:32:37.991Z,100608.22
2022-09-24T17:35:06.163Z,100606.53
2022-09-24T17:37:33.814Z,100607.00
2022-09-24T17:40:00.897Z,100599.91
2022-09-24T17:42:28.099Z,100608.56
2022-09-24T17:44:55.190Z,100607.38
2022-09-24T17:47:22.268Z,100613.75
2022-09-24T17:49:49.336Z,100615.19
2022-09-24T17:52:16.615Z,100616.28
2022-09-24T17:54:44.196Z,100613.63
2022-09-24T17:57:11.338Z,100617.25
2022-09-24T17:59:38.482Z,100611.34
2022-09-24T18:02:06.690Z,100616.03
2022-09-24T18:04:38.235Z,100625.31
2022-09-24T18:07:05.469Z,100624.69
2022-09-24T18:09:32.559Z,100621.06
2022-09-24T18:12:04.404Z,100628.03
2022-09-24T18:14:31.702Z,100621.56
2022-09-24T18:16:59.866Z,100630.97
2022-09-24T18:19:27.033Z,100630.59
2022-09-24T18:21:56.115Z,100632.28
2022-09-24T18:24:23.311Z,100631.34
2022-09-24T18:26:51.853Z,100632.41
2022-09-24T18:29:22.175Z,100634.34
2022-09-24T18:31:51.277Z,100637.34
2022-09-24T18:34:19.311Z,100631.66
2022-09-24T18:36:46.740Z,100636.47
2022-09-24T18:39:21.985Z,100630.91
2022-09-24T18:41:52.127Z,100628.97
2022-09-24T18:44:19.643Z,100627.28
2022-09-24T18:46:46.931Z,100630.91
2022-09-24T18:49:14.105Z,100632.09
2022-09-24T18:51:41.288Z,100629.44
2022-09-24T18:54:12.372Z,100631.13
2022-09-24T18:56:40.198Z,100632.66
2022-09-24T18:59:10.415Z,100633.16
2022-09-24T19:01:38.909Z,100643.03
2022-09-24T19:04:09.053Z,100641.44
2022-09-24T19:06:37.598Z,100641.53
2022-09-24T19:09:05.873Z,100633.69
2022-09-24T19:11:34.520Z,100640.56
2022-09-24T19:14:04.467Z,100642.19
2022-09-24T19:16:31.602Z,100644.59
2022-09-24T19:19:00.038Z,100639.84
2022-09-24T19:21:27.228Z,100641.13
2022-09-24T19:23:56.612Z,100641.38
2022-09-24T19:26:26.467Z,100642.31
2022-09-24T19:28:53.900Z,100644.72
2022-09-24T19:31:32.390Z,100636.69
2022-09-24T19:34:02.919Z,100645.59
2022-09-24T19:36:32.624Z,100647.16
2022-09-24T19:39:01.462Z,100635.16
2022-09-24T19:41:29.097Z,100638.63
2022-09-24T19:43:58.519Z,100647.28
2022-09-24T19:46:27.158Z,100639.34
2022-09-24T19:48:56.063Z,100646.31
2022-09-24T19:51:30.980Z,100633.94
2022-09-24T19:54:00.174Z,100636.19
2022-09-24T19:56:27.665Z,100632.53
2022-09-24T19:58:58.110Z,100632.75
2022-09-24T20:01:30.581Z,100633.59
2022-09-24T20:03:59.427Z,100639.00
2022-09-24T20:06:28.793Z,100637.09
2022-09-24T20:08:57.081Z,100637.66
2022-09-24T20:11:25.893Z,100637.47
2022-09-24T20:13:55.349Z,100618.44
2022-09-24T20:16:26.044Z,100633.47
2022-09-24T20:19:00.108Z,100631.66
2022-09-24T20:21:29.518Z,100629.97
2022-09-24T20:23:58.006Z,100632.75
2022-09-24T20:26:44.939Z,100625.97
2022-09-24T20:29:13.752Z,100625.34
2022-09-24T20:31:42.299Z,100630.84
2022-09-24T20:34:09.622Z,100629.16
2022-09-24T20:36:36.756Z,100628.66
2022-09-24T20:39:04.165Z,100630.66
2022-09-24T20:41:31.249Z,100621.06
2022-09-24T20:43:58.374Z,100627.91
2022-09-24T20:46:28.533Z,100630.66
2022-09-24T20:49:00.751Z,100627.91
2022-09-24T20:51:29.101Z,100630.47
2022-09-24T20:53:56.367Z,100624.53
2022-09-24T20:56:24.912Z,100627.38
2022-09-24T20:58:53.111Z,100629.19
2022-09-24T21:01:24.727Z,100625.50
2022-09-24T21:03:53.000Z,100633.63
2022-09-24T21:06:23.494Z,100629.09
2022-09-24T21:08:51.876Z,100632.47
2022-09-24T21:11:21.332Z,100633.44
2022-09-24T21:13:50.352Z,100633.75
2022-09-24T21:16:22.598Z,100632.16
2022-09-24T21:18:50.943Z,100622.16
2022-09-24T21:21:21.146Z,100624.16
2022-09-24T21:23:50.612Z,100629.13
2022-09-24T21:26:22.665Z,100623.72
2022-09-24T21:28:54.820Z,100629.00
2022-09-24T21:31:24.898Z,100629.13
2022-09-24T21:33:52.890Z,100623.19
2022-09-24T21:36:21.915Z,100621.50
2022-09-24T21:38:59.759Z,100622.75
2022-09-24T21:41:29.429Z,100619.53
2022-09-24T21:43:56.667Z,100618.44
2022-09-24T21:46:24.698Z,100622.75
2022-09-24T21:48:52.655Z,100620.13
2022-09-24T21:51:23.818Z,100626.38
2022-09-24T21:53:57.549Z,100623.53
2022-09-24T21:56:25.002Z,100620.88
2022-09-24T21:58:53.308Z,100612.09
2022-09-24T22:01:28.745Z,100613.28
2022-09-24T22:03:58.138Z,100613.28
2022-09-24T22:06:28.982Z,100615.72
2022-09-24T22:08:57.999Z,100613.78
2022-09-24T22:11:28.063Z,100614.22
2022-09-24T22:13:56.584Z,100615.28
2022-09-24T22:16:23.699Z,100614.41
2022-09-24T22:18:50.858Z,100618.09
2022-09-24T22:21:17.971Z,100620.34
2022-09-24T22:23:45.056Z,100614.09
2022-09-24T22:26:14.556Z,100609.44
2022-09-24T22:28:42.725Z,100603.50
2022-09-24T22:31:13.354Z,100600.16
2022-09-24T22:33:59.488Z,100593.91
2022-09-24T22:36:31.167Z,100599.19
2022-09-24T22:38:59.532Z,100598.34
2022-09-24T22:41:30.604Z,100593.69
2022-09-24T22:43:58.148Z,100594.75
2022-09-24T22:46:27.104Z,100596.53
2022-09-24T22:48:55.302Z,100599.06
2022-09-24T22:51:23.375Z,100598.97
2022-09-24T22:53:50.498Z,100594.03
2022-09-24T22:56:19.508Z,100592.84
2022-09-24T22:58:59.979Z,100598.75
2022-09-24T23:01:30.301Z,100589.13
2022-09-24T23:03:58.119Z,100586.28
2022-09-24T23:06:25.324Z,100594.41
2022-09-24T23:08:53.941Z,100586.59
2022-09-24T23:11:24.278Z,100584.59
2022-09-24T23:13:53.683Z,100594.22
2022-09-24T23:16:23.845Z,100585.25
2022-09-24T23:18:53.678Z,100586.06
2022-09-24T23:21:22.377Z,100582.88
2022-09-24T23:23:57.313Z,100583.00
2022-09-24T23:26:25.785Z,100583.84
2022-09-24T23:28:55.063Z,100584.59
2022-09-24T23:31:28.252Z,100584.59
2022-09-24T23:33:56.327Z,100588.72
2022-09-24T23:36:24.422Z,100586.00
2022-09-24T23:38:53.607Z,100587.03
2022-09-24T23:41:21.993Z,100583.72
2022-09-24T23:43:49.628Z,100583.56
2022-09-24T23:46:17.579Z,100581.53
2022-09-24T23:48:44.953Z,100580.59
2022-09-24T23:51:12.300Z,100583.09
2022-09-24T23:53:39.649Z,100579.19
2022-09-24T23:56:07.334Z,100582.03
2022-09-24T23:58:34.491Z,100580.88
